Time;durP1;ratioP1;P1;durP2;ratioP2;P2;SDS_P1;SDS_P2;PMS_P1;PMS_P2;Temp;Humidity;BMP_temperature;BMP_pressure;BME280_temperature;BME280_humidity;BME280_pressure;Samples;Min_cycle;Max_cycle;Signal;HPM_P1;HPM_P2
2023/03/29 00:00:59;;;;;;;7.65;2.70;;;3.20;99.90;;;;;;7612952;19;20030;-79
2023/03/29 00:03:32;;;;;;;7.68;2.80;;;3.30;98.70;;;;;;7545919;19;20015;-77
2023/03/29 00:06:05;;;;;;;5.10;2.92;;;3.30;99.40;;;;;;7578435;19;20018;-79
2023/03/29 00:08:37;;;;;;;6.60;2.67;;;3.30;99.90;;;;;;7599975;19;20006;-78
2023/03/29 00:11:11;;;;;;;4.80;2.30;;;3.30;99.80;;;;;;7575744;19;20045;-76
2023/03/29 00:13:43;;;;;;;4.65;2.45;;;3.30;99.00;;;;;;7567073;19;20329;-77
2023/03/29 00:16:16;;;;;;;3.58;2.30;;;3.30;99.10;;;;;;7601057;19;20482;-76
2023/03/29 00:18:49;;;;;;;3.67;2.50;;;3.40;99.20;;;;;;7572129;19;20517;-74
2023/03/29 00:21:21;;;;;;;4.15;2.42;;;3.40;98.60;;;;;;7556815;19;20021;-75
2023/03/29 00:23:55;;;;;;;5.63;2.50;;;3.40;97.70;;;;;;7553843;19;21071;-75
2023/03/29 00:26:28;;;;;;;4.22;2.30;;;3.40;98.40;;;;;;7603376;19;20026;-77
2023/03/29 00:29:00;;;;;;;2.15;1.90;;;3.40;98.80;;;;;;7589095;19;20018;-76
2023/03/29 00:31:32;;;;;;;4.15;2.20;;;3.40;98.90;;;;;;7602134;19;20014;-75
2023/03/29 00:34:05;;;;;;;3.42;2.30;;;3.50;99.40;;;;;;7599369;19;20029;-75
2023/03/29 00:36:39;;;;;;;3.13;2.17;;;3.50;99.20;;;;;;7590282;19;20018;-75
2023/03/29 00:39:11;;;;;;;6.88;2.47;;;3.60;99.90;;;;;;7591765;19;20014;-76
2023/03/29 00:41:45;;;;;;;2.20;1.70;;;3.70;99.90;;;;;;7606540;19;20014;-75
2023/03/29 00:44:36;;;;;;;;;;;3.70;99.90;;;;;;7600988;19;20018;-76
2023/03/29 00:47:08;;;;;;;5.15;1.83;;;3.80;99.90;;;;;;7593151;19;19925;-76
2023/03/29 00:49:41;;;;;;;3.45;1.38;;;3.80;99.90;;;;;;7599347;19;20021;-75
2023/03/29 00:52:17;;;;;;;6.18;1.63;;;3.90;99.90;;;;;;7585811;19;20390;-76
2023/03/29 00:54:54;;;;;;;4.93;1.70;;;3.90;99.90;;;;;;7601963;19;20018;-76
2023/03/29 00:57:29;;;;;;;2.65;1.75;;;4.00;99.90;;;;;;7602817;19;20137;-75
2023/03/29 01:00:04;;;;;;;2.80;1.58;;;4.00;99.90;;;;;;7606359;19;20887;-76
2023/03/29 01:02:38;;;;;;;3.03;2.00;;;4.00;99.90;;;;;;7606307;19;20033;-77
2023/03/29 01:05:37;;;;;;;4.18;1.92;;;4.00;99.90;;;;;;7607442;19;20026;-77
2023/03/29 01:08:16;;;;;;;3.22;1.83;;;4.10;99.90;;;;;;7609306;19;20138;-76
2023/03/29 01:10:57;;;;;;;4.35;2.00;;;4.00;99.90;;;;;;7605633;19;20065;-76
2023/03/29 01:13:40;;;;;;;2.45;1.83;;;4.00;99.90;;;;;;7601077;19;20098;-77
2023/03/29 01:16:14;;;;;;;5.95;2.47;;;4.10;99.90;;;;;;7605656;19;20019;-78
2023/03/29 01:18:47;;;;;;;2.85;1.60;;;4.00;99.90;;;;;;7600697;19;20086;-76
2023/03/29 01:21:19;;;;;;;3.45;1.95;;;4.00;99.90;;;;;;7600199;19;20018;-77
2023/03/29 01:24:31;;;;;;;5.30;2.33;;;4.10;99.90;;;;;;7606420;19;20019;-75
2023/03/29 01:27:06;;;;;;;3.70;2.10;;;4.10;99.90;;;;;;7593732;19;20062;-76
2023/03/29 01:29:48;;;;;;;3.60;2.15;;;4.10;99.90;;;;;;7596412;19;20022;-76
2023/03/29 01:32:26;;;;;;;2.72;1.80;;;4.10;99.90;;;;;;7602975;19;20018;-78
2023/03/29 01:35:21;;;;;;;2.95;2.00;;;4.10;99.90;;;;;;7603929;19;20022;-78
2023/03/29 01:38:02;;;;;;;5.85;2.92;;;4.20;99.90;;;;;;7590554;19;20014;-76
2023/03/29 01:40:35;;;;;;;8.27;3.17;;;4.20;99.90;;;;;;7612312;19;20023;-75
2023/03/29 01:43:24;;;;;;;3.85;2.67;;;4.20;99.90;;;;;;7591334;19;20107;-76
2023/03/29 01:46:40;;;;;;;4.05;2.15;;;4.10;99.90;;;;;;7593856;19;20022;-77
2023/03/29 01:49:26;;;;;;;3.70;1.70;;;4.00;99.90;;;;;;7598348;19;20014;-78
2023/03/29 01:52:11;;;;;;;8.52;2.90;;;4.10;99.90;;;;;;7594755;19;20017;-75
2023/03/29 01:54:53;;;;;;;6.95;2.72;;;4.10;99.90;;;;;;7606403;19;20018;-77
2023/03/29 01:57:26;;;;;;;4.82;2.42;;;4.10;99.90;;;;;;7598546;19;20018;-78
2023/03/29 02:00:06;;;;;;;3.15;2.15;;;4.10;99.90;;;;;;7594057;19;20380;-75
2023/03/29 02:02:45;;;;;;;4.93;1.77;;;3.90;99.90;;;;;;7605593;19;20053;-78
2023/03/29 02:05:21;;;;;;;2.95;1.80;;;4.00;99.90;;;;;;7603147;19;20017;-76
2023/03/29 02:07:54;;;;;;;3.25;2.20;;;3.90;99.90;;;;;;7589999;19;20015;-78
2023/03/29 02:10:29;;;;;;;4.80;2.25;;;3.80;99.90;;;;;;7582287;19;20555;-77
2023/03/29 02:13:01;;;;;;;5.78;2.20;;;3.70;99.90;;;;;;7585219;19;20010;-76
2023/03/29 02:15:37;;;;;;;5.53;2.08;;;3.70;99.90;;;;;;7601741;19;20392;-78
2023/03/29 02:18:10;;;;;;;3.88;1.85;;;3.80;99.90;;;;;;7605212;19;20441;-77
2023/03/29 02:20:46;;;;;;;5.72;1.85;;;3.70;99.90;;;;;;7590438;19;20010;-75
2023/03/29 02:23:28;;;;;;;2.63;1.65;;;3.70;99.90;;;;;;7575725;19;20056;-77
2023/03/29 02:26:02;;;;;;;5.05;2.10;;;3.70;99.90;;;;;;7598435;19;20057;-78
2023/03/29 02:28:35;;;;;;;4.55;2.35;;;3.60;99.90;;;;;;7601219;19;20472;-77
2023/03/29 02:31:27;;;;;;;7.50;2.40;;;3.60;99.90;;;;;;7598827;19;20022;-78
2023/03/29 02:34:14;;;;;;;4.13;2.35;;;3.60;99.90;;;;;;7606388;19;20030;-77
2023/03/29 02:36:55;;;;;;;4.97;2.13;;;3.60;99.90;;;;;;7591832;19;20014;-77
2023/03/29 02:39:31;;;;;;;3.08;2.25;;;3.50;99.90;;;;;;7606278;19;21095;-78
2023/03/29 02:42:05;;;;;;;2.13;1.75;;;3.70;99.90;;;;;;7600624;19;20011;-76
2023/03/29 02:44:39;;;;;;;3.50;2.08;;;3.50;99.90;;;;;;7597730;19;20014;-76
2023/03/29 02:47:30;;;;;;;3.13;2.15;;;3.50;99.90;;;;;;7607318;19;20074;-78
2023/03/29 02:50:04;;;;;;;4.18;2.20;;;3.40;99.90;;;;;;7596985;19;20057;-77
2023/03/29 02:52:42;;;;;;;3.28;1.80;;;3.50;99.90;;;;;;7593095;19;20018;-76
2023/03/29 02:55:17;;;;;;;3.95;1.90;;;3.50;99.90;;;;;;7602926;19;20644;-78
2023/03/29 02:57:49;;;;;;;6.18;2.17;;;3.50;99.90;;;;;;7600096;19;20390;-78
2023/03/29 03:00:22;;;;;;;2.80;1.80;;;3.50;99.90;;;;;;7599297;19;20030;-78
2023/03/29 03:02:55;;;;;;;2.97;2.13;;;3.50;99.90;;;;;;7605051;19;20030;-77
2023/03/29 03:05:28;;;;;;;3.50;1.83;;;3.50;99.90;;;;;;7596061;19;20034;-76
2023/03/29 03:08:01;;;;;;;2.97;2.20;;;3.50;99.90;;;;;;7594400;19;20018;-76
2023/03/29 03:10:34;;;;;;;3.15;2.30;;;3.50;99.90;;;;;;7611486;19;20018;-79
2023/03/29 03:13:08;;;;;;;5.43;1.92;;;3.50;99.90;;;;;;7599919;19;20642;-77
2023/03/29 03:15:41;;;;;;;3.97;2.10;;;3.40;99.90;;;;;;7611124;19;20018;-76
2023/03/29 03:18:15;;;;;;;3.53;2.13;;;3.40;99.90;;;;;;7604114;19;20540;-78
2023/03/29 03:20:54;;;;;;;;;;;3.50;99.90;;;;;;7599005;19;20274;-75
2023/03/29 03:23:28;;;;;;;4.00;2.28;;;3.50;99.90;;;;;;7598134;19;19923;-78
2023/03/29 03:26:00;;;;;;;;;;;3.50;99.90;;;;;;7596695;19;20018;-76
2023/03/29 03:28:34;;;;;;;4.85;2.20;;;3.50;99.90;;;;;;7601799;19;19923;-78
2023/03/29 03:31:09;;;;;;;4.45;2.25;;;3.40;99.90;;;;;;7574912;19;20014;-78
2023/03/29 03:34:07;;;;;;;4.22;1.88;;;3.30;99.90;;;;;;7606585;19;20465;-77
2023/03/29 03:36:46;;;;;;;3.92;2.22;;;3.30;99.90;;;;;;7599859;19;20086;-76
2023/03/29 03:39:18;;;;;;;;;;;3.30;99.90;;;;;;7591268;19;20022;-76
2023/03/29 03:41:50;;;;;;;3.67;2.10;;;3.30;99.90;;;;;;7597191;19;19927;-76
2023/03/29 03:44:22;;;;;;;3.25;1.85;;;3.20;99.90;;;;;;7601291;19;20022;-76
2023/03/29 03:47:13;;;;;;;4.18;1.98;;;3.30;99.90;;;;;;7594992;19;20019;-76
2023/03/29 03:49:46;;;;;;;9.70;2.50;;;3.30;99.90;;;;;;7594043;19;20006;-75
2023/03/29 03:52:20;;;;;;;3.30;1.98;;;3.20;99.90;;;;;;7599272;19;20396;-77
2023/03/29 03:54:52;;;;;;;3.15;2.10;;;3.20;99.90;;;;;;7599636;19;20263;-78
2023/03/29 03:57:46;;;;;;;2.45;1.80;;;3.10;99.90;;;;;;7603977;19;20018;-75
2023/03/29 04:00:22;;;;;;;3.65;1.70;;;3.10;99.90;;;;;;7600497;19;20569;-76
2023/03/29 04:03:13;;;;;;;3.05;2.00;;;3.10;99.90;;;;;;7606483;19;20019;-78
2023/03/29 04:05:45;;;;;;;2.60;1.98;;;3.10;99.90;;;;;;7602784;19;20086;-77
2023/03/29 04:08:21;;;;;;;2.28;1.55;;;3.10;99.90;;;;;;7600326;19;20003;-78
2023/03/29 04:11:12;;;;;;;2.63;1.77;;;3.20;99.90;;;;;;7607651;19;20046;-78
2023/03/29 04:13:46;;;;;;;4.85;1.58;;;3.20;99.90;;;;;;7612959;19;20018;-76
2023/03/29 04:16:29;;;;;;;3.30;1.90;;;3.30;99.90;;;;;;7605321;19;20007;-77
2023/03/29 04:19:11;;;;;;;4.15;1.67;;;3.30;99.90;;;;;;7605008;19;20057;-77
2023/03/29 04:21:46;;;;;;;7.82;1.83;;;3.30;99.90;;;;;;7618478;19;20013;-78
2023/03/29 04:24:18;;;;;;;3.72;3.20;;;3.30;99.90;;;;;;7610837;19;20090;-78
2023/03/29 04:27:08;;;;;;;3.88;2.05;;;3.30;99.90;;;;;;7606223;19;20022;-77
2023/03/29 04:29:43;;;;;;;3.78;1.70;;;3.40;99.90;;;;;;7618854;19;20010;-77
2023/03/29 04:32:26;;;;;;;5.03;1.80;;;3.40;99.90;;;;;;7593965;19;20852;-75
2023/03/29 04:35:09;;;;;;;3.88;2.00;;;3.50;99.90;;;;;;7602564;19;21338;-77
2023/03/29 04:37:42;;;;;;;3.47;1.80;;;3.40;99.90;;;;;;7615048;19;20055;-77
2023/03/29 04:40:18;;;;;;;3.80;1.77;;;3.50;99.90;;;;;;7607080;19;20036;-75
2023/03/29 04:43:01;;;;;;;3.67;1.90;;;3.60;99.90;;;;;;7592749;19;20820;-77
2023/03/29 04:45:34;;;;;;;5.53;1.77;;;3.70;99.90;;;;;;7591694;19;20018;-77
2023/03/29 04:48:15;;;;;;;2.97;1.77;;;3.80;99.90;;;;;;7567461;19;20019;-75
2023/03/29 04:50:49;;;;;;;2.42;1.60;;;3.80;99.90;;;;;;7585334;19;20014;-77
2023/03/29 04:53:23;;;;;;;7.47;2.05;;;3.90;99.90;;;;;;7594841;19;20018;-77
2023/03/29 04:55:57;;;;;;;3.13;1.60;;;4.00;99.90;;;;;;7613912;19;20330;-79
2023/03/29 04:58:50;;;;;;;6.30;1.73;;;4.10;99.90;;;;;;7602493;19;20011;-82
2023/03/29 05:01:22;;;;;;;3.05;1.70;;;4.20;99.90;;;;;;7607467;19;20026;-79
2023/03/29 05:04:02;;;;;;;1.60;1.25;;;4.20;99.90;;;;;;7601920;19;20017;-79
2023/03/29 05:06:41;;;;;;;5.65;2.22;;;4.40;99.90;;;;;;7585614;19;20248;-78
2023/03/29 05:09:24;;;;;;;4.38;1.92;;;4.60;99.90;;;;;;7599952;19;20014;-80
2023/03/29 05:11:57;;;;;;;2.88;1.80;;;4.60;99.90;;;;;;7599147;19;20018;-78
2023/03/29 05:14:30;;;;;;;2.95;2.25;;;4.60;99.90;;;;;;7616527;19;20338;-79
2023/03/29 05:17:03;;;;;;;6.05;2.60;;;4.80;99.90;;;;;;7602961;19;20949;-81
2023/03/29 05:19:37;;;;;;;4.07;2.97;;;4.90;99.90;;;;;;7598321;19;20014;-80
2023/03/29 05:22:11;;;;;;;6.25;3.38;;;4.90;99.90;;;;;;7590142;19;20468;-79
2023/03/29 05:24:44;;;;;;;3.00;1.95;;;5.00;99.90;;;;;;7607448;19;20014;-80
2023/03/29 05:27:21;;;;;;;2.63;1.42;;;5.10;99.90;;;;;;7611852;19;20845;-80
2023/03/29 05:30:11;;;;;;;3.33;1.73;;;5.20;99.90;;;;;;7608195;19;20015;-81
2023/03/29 05:33:09;;;;;;;3.22;1.80;;;5.40;99.90;;;;;;7597354;19;20007;-79
2023/03/29 05:35:42;;;;;;;2.17;1.00;;;5.50;99.90;;;;;;7587395;19;20634;-78
2023/03/29 05:38:15;;;;;;;2.83;1.42;;;5.50;99.90;;;;;;7595762;19;20014;-81
2023/03/29 05:40:48;;;;;;;4.53;1.40;;;5.50;99.90;;;;;;7609754;19;20029;-78
2023/03/29 05:43:23;;;;;;;1.42;0.73;;;5.50;99.90;;;;;;7617575;19;21034;-81
2023/03/29 05:45:56;;;;;;;3.35;1.30;;;5.70;99.90;;;;;;7611090;19;20738;-80
2023/03/29 05:48:29;;;;;;;2.22;1.63;;;5.80;99.90;;;;;;7612102;19;20476;-80
2023/03/29 05:51:02;;;;;;;6.25;1.30;;;5.80;99.90;;;;;;7615023;19;20140;-78
2023/03/29 05:53:35;;;;;;;4.53;1.80;;;5.80;99.90;;;;;;7607451;19;20069;-82
2023/03/29 05:56:09;;;;;;;3.05;2.42;;;5.90;99.90;;;;;;7610135;19;20026;-78
2023/03/29 05:58:42;;;;;;;4.18;1.80;;;5.90;99.90;;;;;;7608946;19;20011;-80
2023/03/29 06:01:16;;;;;;;2.97;1.95;;;5.90;99.90;;;;;;7597855;19;20045;-81
2023/03/29 06:04:09;;;;;;;;;;;5.90;99.90;;;;;;7601212;19;20037;-79
2023/03/29 06:06:49;;;;;;;5.60;1.80;;;5.90;99.90;;;;;;7594571;19;19918;-78
2023/03/29 06:09:21;;;;;;;4.40;1.50;;;6.00;99.90;;;;;;7592141;19;20271;-79
2023/03/29 06:12:07;;;;;;;5.38;2.08;;;6.00;99.90;;;;;;7601159;19;20014;-81
2023/03/29 06:15:03;;;;;;;;;;;6.00;99.90;;;;;;7591940;19;20021;-78
2023/03/29 06:17:44;;;;;;;3.60;1.77;;;6.10;99.90;;;;;;7579207;19;19922;-79
2023/03/29 06:20:17;;;;;;;3.00;1.40;;;6.10;99.90;;;;;;7565355;19;20011;-79
2023/03/29 06:22:55;;;;;;;5.97;2.05;;;6.10;99.90;;;;;;7594568;19;20018;-83
2023/03/29 06:25:27;;;;;;;2.42;1.50;;;6.20;99.90;;;;;;7596495;19;20223;-82
2023/03/29 06:28:00;;;;;;;5.45;1.85;;;6.20;99.90;;;;;;7572130;19;20018;-80
2023/03/29 06:30:32;;;;;;;1.87;1.10;;;6.20;99.90;;;;;;7606869;19;20010;-79
2023/03/29 06:33:05;;;;;;;3.03;1.20;;;6.20;99.90;;;;;;7586331;19;20014;-79
2023/03/29 06:35:53;;;;;;;1.92;0.93;;;6.20;99.90;;;;;;7599651;19;20010;-81
2023/03/29 06:38:30;;;;;;;1.70;1.02;;;6.40;99.90;;;;;;7593709;19;20014;-82
2023/03/29 06:41:22;;;;;;;6.05;1.30;;;6.30;99.90;;;;;;7597669;19;20458;-82
2023/03/29 06:44:21;;;;;;;1.05;0.90;;;6.50;99.90;;;;;;7594552;19;20029;-79
2023/03/29 06:47:09;;;;;;;1.55;0.90;;;6.60;99.90;;;;;;7584148;19;20085;-82
2023/03/29 06:49:42;;;;;;;1.88;1.20;;;6.70;99.90;;;;;;7563322;19;20018;-81
2023/03/29 06:52:43;;;;;;;1.92;1.17;;;6.80;99.90;;;;;;7564008;19;20022;-80
2023/03/29 06:55:17;;;;;;;2.05;1.30;;;6.90;99.90;;;;;;7587575;19;20018;-78
2023/03/29 06:57:50;;;;;;;2.38;1.30;;;7.00;99.90;;;;;;7467258;19;2860656;-82
2023/03/29 07:00:28;;;;;;;3.67;1.27;;;7.00;99.90;;;;;;7617915;19;20068;-79
2023/03/29 07:03:12;;;;;;;6.40;1.35;;;7.00;99.90;;;;;;7614185;19;20029;-80
2023/03/29 07:05:50;;;;;;;1.90;1.27;;;7.10;99.90;;;;;;7618129;19;20489;-79
2023/03/29 07:08:29;;;;;;;2.20;1.27;;;7.20;99.90;;;;;;7613933;19;20018;-81
2023/03/29 07:11:05;;;;;;;2.25;1.40;;;7.30;99.90;;;;;;7617042;19;20014;-78
2023/03/29 07:13:52;;;;;;;2.28;1.10;;;7.40;99.90;;;;;;7620672;19;20014;-81
2023/03/29 07:16:26;;;;;;;4.20;1.10;;;7.30;99.90;;;;;;7608474;19;20049;-81
2023/03/29 07:19:14;;;;;;;11.30;1.42;;;7.50;99.90;;;;;;7619257;19;20010;-79
2023/03/29 07:22:09;;;;;;;4.00;1.55;;;7.50;99.90;;;;;;7608290;19;20097;-82
2023/03/29 07:24:55;;;;;;;2.05;1.20;;;7.70;99.90;;;;;;7610067;19;20015;-79
2023/03/29 07:27:27;;;;;;;1.50;1.20;;;7.80;99.90;;;;;;7606112;19;20053;-79
2023/03/29 07:30:00;;;;;;;1.88;1.20;;;8.00;99.90;;;;;;7619862;19;20052;-79
2023/03/29 07:32:32;;;;;;;2.13;1.00;;;8.00;99.90;;;;;;7592555;19;20111;-82
2023/03/29 07:35:35;;;;;;;2.95;0.73;;;8.10;99.90;;;;;;7601154;19;20047;-81
2023/03/29 07:38:07;;;;;;;4.93;1.50;;;8.40;99.90;;;;;;7622412;19;20011;-80
2023/03/29 07:40:42;;;;;;;4.60;1.48;;;8.30;99.90;;;;;;7612289;19;20034;-81
2023/03/29 07:43:42;;;;;;;3.25;1.67;;;8.50;99.90;;;;;;7605363;19;20018;-79
2023/03/29 07:46:16;;;;;;;3.00;1.33;;;8.50;99.90;;;;;;7603049;19;20022;-79
2023/03/29 07:48:48;;;;;;;8.23;1.58;;;8.60;99.90;;;;;;7607955;19;20588;-81
2023/03/29 07:51:20;;;;;;;4.55;1.35;;;8.60;99.90;;;;;;7621925;19;20020;-80
2023/03/29 07:53:57;;;;;;;2.65;1.50;;;8.70;99.90;;;;;;7616048;19;20357;-80
2023/03/29 07:56:42;;;;;;;1.02;0.90;;;8.80;99.90;;;;;;7622669;19;20018;-80
2023/03/29 07:59:21;;;;;;;5.20;1.33;;;8.80;99.90;;;;;;7633053;19;20028;-82
2023/03/29 08:02:07;;;;;;;1.02;0.73;;;8.90;99.90;;;;;;7618054;19;20681;-81
2023/03/29 08:04:45;;;;;;;5.28;1.23;;;8.90;97.90;;;;;;7616652;19;20018;-79
2023/03/29 08:07:20;;;;;;;4.65;1.10;;;9.00;97.60;;;;;;7613660;19;20062;-79
2023/03/29 08:10:20;;;;;;;7.97;1.42;;;8.90;98.20;;;;;;7611566;19;20345;-82
2023/03/29 08:13:10;;;;;;;4.80;1.58;;;9.00;97.20;;;;;;7616876;19;20014;-83
2023/03/29 08:15:59;;;;;;;2.28;1.13;;;9.00;97.10;;;;;;7612836;19;20015;-82
2023/03/29 08:18:37;;;;;;;4.25;1.20;;;9.00;97.60;;;;;;7619152;19;20022;-81
2023/03/29 08:21:10;;;;;;;8.60;1.35;;;9.10;96.30;;;;;;7611418;19;20038;-81
2023/03/29 08:23:43;;;;;;;4.45;1.38;;;9.20;96.80;;;;;;7600380;19;20613;-81
2023/03/29 08:26:29;;;;;;;3.50;0.98;;;9.30;96.40;;;;;;7587059;19;20025;-78
2023/03/29 08:29:03;;;;;;;2.08;1.25;;;9.50;95.20;;;;;;7600994;19;20026;-77
2023/03/29 08:31:35;;;;;;;3.10;1.10;;;9.40;96.30;;;;;;7601555;19;20045;-75
2023/03/29 08:34:07;;;;;;;2.42;1.40;;;9.40;95.60;;;;;;7614051;19;20015;-77
2023/03/29 08:36:54;;;;;;;6.03;1.30;;;9.40;94.70;;;;;;7614282;19;20021;-81
2023/03/29 08:39:33;;;;;;;6.00;1.50;;;9.40;95.40;;;;;;7610435;19;20504;-78
2023/03/29 08:42:48;;;;;;;3.72;1.27;;;9.40;94.10;;;;;;7587754;19;20025;-82
2023/03/29 08:45:45;;;;;;;1.90;0.82;;;9.40;94.10;;;;;;7602204;19;20007;-80
2023/03/29 08:48:36;;;;;;;3.97;1.23;;;9.50;93.90;;;;;;7612481;19;21039;-80
2023/03/29 08:51:21;;;;;;;4.25;1.40;;;9.40;94.40;;;;;;7615633;19;20029;-81
2023/03/29 08:54:04;;;;;;;3.58;1.20;;;9.40;94.90;;;;;;7600511;19;20062;-80
2023/03/29 08:56:53;;;;;;;4.05;1.52;;;9.60;94.40;;;;;;7600372;19;20049;-78
2023/03/29 08:59:34;;;;;;;8.82;2.45;;;9.60;95.10;;;;;;7612959;19;20026;-79
2023/03/29 09:02:19;;;;;;;3.92;1.13;;;9.70;94.50;;;;;;7610413;19;20538;-78
2023/03/29 09:05:13;;;;;;;4.80;0.80;;;9.80;94.80;;;;;;7608348;19;20022;-78
2023/03/29 09:07:53;;;;;;;4.43;1.15;;;10.00;93.70;;;;;;7604486;19;20019;-82
2023/03/29 09:10:38;;;;;;;3.45;1.00;;;9.90;93.70;;;;;;7600970;19;20828;-79
2023/03/29 09:13:33;;;;;;;2.97;0.95;;;10.00;93.70;;;;;;7606741;19;20020;-79
2023/03/29 09:16:23;;;;;;;3.65;1.25;;;10.20;93.30;;;;;;7590915;19;20500;-77
2023/03/29 09:19:15;;;;;;;4.82;1.45;;;10.10;94.20;;;;;;7606893;19;20082;-78
2023/03/29 09:21:59;;;;;;;5.82;1.50;;;10.20;93.90;;;;;;7615688;19;20006;-80
2023/03/29 09:24:46;;;;;;;1.30;1.13;;;10.10;94.00;;;;;;7613298;19;20025;-78
2023/03/29 09:27:31;;;;;;;4.38;1.42;;;10.00;95.00;;;;;;7613197;19;20014;-80
2023/03/29 09:30:25;;;;;;;9.65;1.25;;;10.00;94.80;;;;;;7595378;19;20010;-79
2023/03/29 09:33:26;;;;;;;2.13;1.33;;;10.10;94.40;;;;;;7595214;19;20018;-80
2023/03/29 09:36:43;;;;;;;4.07;1.77;;;10.30;93.70;;;;;;7586428;19;20607;-79
2023/03/29 09:39:16;;;;;;;4.35;1.58;;;10.40;93.60;;;;;;7600765;19;20018;-79
2023/03/29 09:42:07;;;;;;;4.05;1.50;;;10.40;93.30;;;;;;7590779;19;20019;-78
2023/03/29 09:44:46;;;;;;;2.42;1.17;;;10.50;93.40;;;;;;7575660;19;20106;-78
2023/03/29 09:47:31;;;;;;;2.30;0.93;;;10.70;92.30;;;;;;7581540;19;20014;-78
2023/03/29 09:50:18;;;;;;;4.00;1.05;;;10.60;92.10;;;;;;7601424;19;20018;-82
2023/03/29 09:53:04;;;;;;;3.72;1.13;;;10.70;91.50;;;;;;7587108;19;20742;-79
2023/03/29 09:55:43;;;;;;;2.88;1.25;;;10.60;91.60;;;;;;7602751;19;20014;-80
2023/03/29 09:58:41;;;;;;;1.70;0.77;;;10.60;91.00;;;;;;7619830;19;20048;-80
2023/03/29 10:01:16;;;;;;;4.47;1.35;;;10.80;90.30;;;;;;7603795;19;20480;-79
2023/03/29 10:03:52;;;;;;;5.22;1.90;;;10.80;88.90;;;;;;7594852;19;20011;-78
2023/03/29 10:06:27;;;;;;;2.42;1.00;;;10.90;89.50;;;;;;7577441;19;20018;-78
2023/03/29 10:09:03;;;;;;;2.30;1.20;;;11.10;88.30;;;;;;7589098;19;20019;-78
2023/03/29 10:11:56;;;;;;;4.25;1.30;;;11.10;88.10;;;;;;7603337;19;20018;-81
2023/03/29 10:14:35;;;;;;;2.05;1.23;;;11.10;88.30;;;;;;7599597;19;20032;-81
2023/03/29 10:17:28;;;;;;;4.88;1.70;;;11.20;88.50;;;;;;7590841;19;20539;-82
2023/03/29 10:20:05;;;;;;;3.15;1.50;;;11.40;88.10;;;;;;7602964;19;20570;-80
2023/03/29 10:22:47;;;;;;;1.33;0.82;;;11.40;86.40;;;;;;7585140;19;20022;-81
2023/03/29 10:25:28;;;;;;;3.65;1.30;;;11.40;85.90;;;;;;7582285;19;20335;-78
2023/03/29 10:28:10;;;;;;;1.90;0.85;;;11.50;87.10;;;;;;7591727;19;21488;-79
2023/03/29 10:30:51;;;;;;;5.93;1.83;;;11.60;84.60;;;;;;7597138;19;20018;-78
2023/03/29 10:33:26;;;;;;;2.67;0.90;;;11.60;85.20;;;;;;7601937;19;20650;-78
2023/03/29 10:36:01;;;;;;;4.15;1.83;;;11.50;84.00;;;;;;7584457;19;20006;-78
2023/03/29 10:38:35;;;;;;;1.88;1.23;;;11.50;85.10;;;;;;7586475;19;20043;-78
2023/03/29 10:41:11;;;;;;;3.00;1.30;;;11.60;84.50;;;;;;7604708;19;20650;-79
2023/03/29 10:43:49;;;;;;;2.78;1.15;;;11.70;83.00;;;;;;7603452;19;20943;-80
2023/03/29 10:46:26;;;;;;;1.85;1.55;;;11.60;83.30;;;;;;7576744;19;20303;-77
2023/03/29 10:49:04;;;;;;;3.47;1.00;;;11.90;82.10;;;;;;7575575;19;20109;-77
2023/03/29 10:51:42;;;;;;;3.53;1.48;;;11.90;82.60;;;;;;7543988;19;20015;-77
2023/03/29 10:54:20;;;;;;;3.00;1.20;;;12.00;82.10;;;;;;7553643;19;20018;-77
2023/03/29 10:56:59;;;;;;;4.45;1.23;;;12.20;81.10;;;;;;7510859;19;20497;-78
2023/03/29 10:59:50;;;;;;;2.63;1.40;;;12.50;79.70;;;;;;7582219;19;20018;-79
2023/03/29 11:02:48;;;;;;;6.10;1.42;;;12.60;79.80;;;;;;7568243;19;20103;-79
2023/03/29 11:05:21;;;;;;;3.00;1.38;;;12.50;80.30;;;;;;7551434;19;20022;-77
2023/03/29 11:08:38;;;;;;;3.85;1.40;;;12.50;80.60;;;;;;7586978;19;20019;-77
2023/03/29 11:11:46;;;;;;;7.65;1.63;;;12.60;80.10;;;;;;7573256;19;20021;-79
2023/03/29 11:14:48;;;;;;;2.90;1.10;;;12.50;80.00;;;;;;7567770;19;20010;-79
2023/03/29 11:17:24;;;;;;;4.20;1.13;;;12.50;80.60;;;;;;7591750;19;20018;-79
2023/03/29 11:20:22;;;;;;;2.35;1.10;;;12.60;78.80;;;;;;7578926;19;20443;-79
2023/03/29 11:22:55;;;;;;;2.83;1.58;;;12.60;78.60;;;;;;7587926;19;20572;-79
2023/03/29 11:25:37;;;;;;;4.78;1.30;;;12.80;79.70;;;;;;7595959;19;20030;-79
2023/03/29 11:28:30;;;;;;;3.17;1.27;;;12.90;80.10;;;;;;7593351;19;20053;-80
2023/03/29 11:31:13;;;;;;;3.33;1.52;;;13.00;76.10;;;;;;7584772;19;20018;-79
2023/03/29 11:34:22;;;;;;;8.32;1.90;;;13.10;74.50;;;;;;7558720;19;20527;-79
2023/03/29 11:37:16;;;;;;;3.13;1.15;;;13.40;75.90;;;;;;7562444;19;20545;-79
2023/03/29 11:40:21;;;;;;;2.03;1.10;;;13.60;72.70;;;;;;7566582;19;20279;-79
2023/03/29 11:42:57;;;;;;;2.72;1.30;;;13.70;73.00;;;;;;7581352;19;20354;-81
2023/03/29 11:45:40;;;;;;;4.97;1.35;;;13.70;72.10;;;;;;7579328;19;20681;-80
2023/03/29 11:48:20;;;;;;;4.28;1.35;;;13.80;72.10;;;;;;7583580;19;20081;-78
2023/03/29 11:51:00;;;;;;;2.63;1.42;;;13.90;71.30;;;;;;7550543;19;20021;-82
2023/03/29 11:53:55;;;;;;;4.72;1.27;;;13.80;71.50;;;;;;7577999;19;20018;-81
2023/03/29 11:56:41;;;;;;;3.17;1.60;;;13.80;73.40;;;;;;7599252;19;20010;-80
2023/03/29 11:59:38;;;;;;;7.53;1.30;;;13.90;69.80;;;;;;7569408;19;20018;-81
2023/03/29 12:02:33;;;;;;;6.13;1.50;;;14.10;68.70;;;;;;7582811;19;20018;-82
2023/03/29 12:05:20;;;;;;;4.35;1.35;;;14.20;66.90;;;;;;7591707;19;20641;-81
2023/03/29 12:08:02;;;;;;;7.63;1.13;;;14.20;64.40;;;;;;7561517;19;20186;-78
2023/03/29 12:10:45;;;;;;;9.32;1.42;;;14.20;64.90;;;;;;7580367;19;20014;-78
2023/03/29 12:13:23;;;;;;;1.50;1.40;;;14.30;64.20;;;;;;7571770;19;20500;-79
2023/03/29 12:16:01;;;;;;;5.88;1.52;;;14.40;64.30;;;;;;7584098;19;21003;-78
2023/03/29 12:18:40;;;;;;;4.13;1.20;;;14.50;63.50;;;;;;7579999;19;22113;-79
2023/03/29 12:21:21;;;;;;;2.80;1.40;;;14.60;64.10;;;;;;7564544;19;20017;-78
2023/03/29 12:23:56;;;;;;;2.70;1.23;;;14.60;63.10;;;;;;7580679;19;20026;-80
2023/03/29 12:27:06;;;;;;;3.72;1.50;;;14.60;62.50;;;;;;7611861;19;20058;-79
2023/03/29 12:29:53;;;;;;;4.15;1.25;;;14.60;61.70;;;;;;7589980;19;21096;-81
2023/03/29 12:32:32;;;;;;;4.97;1.38;;;14.40;60.60;;;;;;7567598;19;20029;-83
2023/03/29 12:35:58;;;;;;;3.03;1.30;;;14.40;60.70;;;;;;7572423;19;20071;-80
2023/03/29 12:39:15;;;;;;;4.57;1.38;;;14.30;61.50;;;;;;7588867;19;20022;-80
2023/03/29 12:42:14;;;;;;;6.63;1.27;;;14.30;62.10;;;;;;7604984;19;20741;-82
2023/03/29 12:45:18;;;;;;;5.13;1.40;;;14.30;60.60;;;;;;7588835;19;20361;-79
2023/03/29 12:47:51;;;;;;;4.50;1.15;;;14.30;62.00;;;;;;7599378;19;20537;-82
2023/03/29 12:50:33;;;;;;;6.32;1.80;;;14.30;61.10;;;;;;7591705;19;20020;-78
2023/03/29 12:53:18;;;;;;;7.00;1.20;;;14.30;60.80;;;;;;7598709;19;20484;-79
2023/03/29 12:56:11;;;;;;;2.95;1.45;;;14.30;62.10;;;;;;7592443;19;20786;-80
2023/03/29 12:58:54;;;;;;;4.75;1.40;;;14.40;62.40;;;;;;7575709;19;20011;-78
2023/03/29 13:01:31;;;;;;;5.43;1.10;;;14.30;61.50;;;;;;7596144;19;20047;-78
2023/03/29 13:04:16;;;;;;;5.13;1.25;;;14.30;61.90;;;;;;7594680;19;20019;-77
2023/03/29 13:06:48;;;;;;;5.00;1.30;;;14.30;62.30;;;;;;7594190;19;20022;-78
2023/03/29 13:09:24;;;;;;;4.07;1.15;;;14.40;61.30;;;;;;7591966;19;20006;-79
2023/03/29 13:12:07;;;;;;;4.00;1.38;;;14.50;61.40;;;;;;7583464;19;20014;-82
2023/03/29 13:14:43;;;;;;;7.00;1.58;;;15.20;61.00;;;;;;7602125;19;20013;-78
2023/03/29 13:17:54;;;;;;;8.48;1.67;;;15.00;59.40;;;;;;7590535;19;20011;-79
2023/03/29 13:20:30;;;;;;;3.95;1.13;;;15.40;59.90;;;;;;7597158;19;21080;-79
2023/03/29 13:23:25;;;;;;;5.35;1.50;;;15.70;58.70;;;;;;7580992;19;20018;-78
2023/03/29 13:26:20;;;;;;;5.65;1.55;;;16.00;57.40;;;;;;7550147;19;20011;-79
2023/03/29 13:29:16;;;;;;;7.57;1.88;;;16.20;58.00;;;;;;7549496;19;20010;-80
2023/03/29 13:32:00;;;;;;;4.15;1.20;;;15.80;57.70;;;;;;7572815;19;20094;-79
2023/03/29 13:34:44;;;;;;;4.50;1.70;;;15.50;57.40;;;;;;7574660;19;20038;-79
2023/03/29 13:37:38;;;;;;;5.03;1.50;;;15.50;57.20;;;;;;7590876;19;20015;-78
2023/03/29 13:40:41;;;;;;;3.90;1.35;;;15.50;58.60;;;;;;7602368;19;20793;-79
2023/03/29 13:43:19;;;;;;;2.70;1.50;;;15.60;58.40;;;;;;7611680;19;20014;-81
2023/03/29 13:45:58;;;;;;;5.13;1.08;;;15.60;59.00;;;;;;7592539;19;20022;-80
2023/03/29 13:48:34;;;;;;;3.20;1.88;;;15.90;57.90;;;;;;7600904;19;20022;-81
2023/03/29 13:51:13;;;;;;;4.82;1.50;;;16.10;55.20;;;;;;7605871;19;20047;-79
2023/03/29 13:53:51;;;;;;;11.43;1.40;;;15.90;54.70;;;;;;7607052;19;20429;-80
2023/03/29 13:56:50;;;;;;;2.63;0.90;;;15.90;55.40;;;;;;7606984;19;20548;-80
2023/03/29 13:59:44;;;;;;;6.80;2.17;;;15.80;55.80;;;;;;7601458;19;20798;-77
2023/03/29 14:02:40;;;;;;;4.53;1.40;;;15.80;56.80;;;;;;7603648;19;20018;-78
2023/03/29 14:05:18;;;;;;;7.20;1.10;;;15.70;54.10;;;;;;7596914;19;20471;-79
2023/03/29 14:07:53;;;;;;;3.53;1.23;;;15.50;53.10;;;;;;7607000;19;20039;-78
2023/03/29 14:10:31;;;;;;;2.28;1.20;;;15.50;53.90;;;;;;7610955;19;20025;-79